sensor_id;sensor_type;location;lat;lon;timestamp;P1;durP1;ratioP1;P2;durP2;ratioP2
47804;SDS011;33568;45.286;9.900;2023-05-07T00:01:22;32.35;;;29.20;;
47804;SDS011;33568;45.286;9.900;2023-05-07T00:03:48;29.60;;;26.60;;
47804;SDS011;33568;45.286;9.900;2023-05-07T00:06:15;31.50;;;28.58;;
47804;SDS011;33568;45.286;9.900;2023-05-07T00:08:41;30.92;;;28.00;;
47804;SDS011;33568;45.286;9.900;2023-05-07T00:11:07;31.60;;;28.48;;
47804;SDS011;33568;45.286;9.900;2023-05-07T00:13:34;31.48;;;28.27;;
47804;SDS011;33568;45.286;9.900;2023-05-07T00:16:01;32.17;;;28.88;;
47804;SDS011;33568;45.286;9.900;2023-05-07T00:18:28;33.40;;;27.60;;
47804;SDS011;33568;45.286;9.900;2023-05-07T00:20:55;32.22;;;28.05;;
47804;SDS011;33568;45.286;9.900;2023-05-07T00:23:22;31.58;;;28.38;;
47804;SDS011;33568;45.286;9.900;2023-05-07T00:25:48;31.17;;;28.02;;
47804;SDS011;33568;45.286;9.900;2023-05-07T00:28:15;30.30;;;26.95;;
47804;SDS011;33568;45.286;9.900;2023-05-07T00:30:41;27.95;;;25.42;;
47804;SDS011;33568;45.286;9.900;2023-05-07T00:33:08;27.52;;;24.92;;
47804;SDS011;33568;45.286;9.900;2023-05-07T00:36:07;28.27;;;25.40;;
47804;SDS011;33568;45.286;9.900;2023-05-07T00:38:34;28.17;;;25.23;;
47804;SDS011;33568;45.286;9.900;2023-05-07T00:41:01;28.52;;;25.73;;
47804;SDS011;33568;45.286;9.900;2023-05-07T00:43:28;28.20;;;25.60;;
47804;SDS011;33568;45.286;9.900;2023-05-07T00:45:55;30.33;;;26.42;;
47804;SDS011;33568;45.286;9.900;2023-05-07T00:48:22;28.70;;;25.88;;
47804;SDS011;33568;45.286;9.900;2023-05-07T00:50:50;29.42;;;26.52;;
47804;SDS011;33568;45.286;9.900;2023-05-07T00:53:16;29.30;;;26.50;;
47804;SDS011;33568;45.286;9.900;2023-05-07T00:55:43;30.40;;;27.63;;
47804;SDS011;33568;45.286;9.900;2023-05-07T00:58:10;32.15;;;28.92;;
47804;SDS011;33568;45.286;9.900;2023-05-07T01:00:36;32.60;;;29.50;;
47804;SDS011;33568;45.286;9.900;2023-05-07T01:03:03;30.95;;;27.88;;
47804;SDS011;33568;45.286;9.900;2023-05-07T01:05:30;32.00;;;28.85;;
47804;SDS011;33568;45.286;9.900;2023-05-07T01:07:57;32.33;;;29.38;;
47804;SDS011;33568;45.286;9.900;2023-05-07T01:10:24;31.20;;;28.10;;
47804;SDS011;33568;45.286;9.900;2023-05-07T01:12:51;32.20;;;28.95;;
47804;SDS011;33568;45.286;9.900;2023-05-07T01:15:19;33.22;;;29.67;;
47804;SDS011;33568;45.286;9.900;2023-05-07T01:17:46;33.85;;;30.35;;
47804;SDS011;33568;45.286;9.900;2023-05-07T01:20:22;34.60;;;31.25;;
47804;SDS011;33568;45.286;9.900;2023-05-07T01:22:51;34.40;;;31.02;;
47804;SDS011;33568;45.286;9.900;2023-05-07T01:25:17;33.95;;;30.73;;
47804;SDS011;33568;45.286;9.900;2023-05-07T01:27:49;34.83;;;31.17;;
47804;SDS011;33568;45.286;9.900;2023-05-07T01:30:16;33.75;;;30.35;;
47804;SDS011;33568;45.286;9.900;2023-05-07T01:32:51;35.30;;;32.03;;
47804;SDS011;33568;45.286;9.900;2023-05-07T01:35:22;32.40;;;29.25;;
47804;SDS011;33568;45.286;9.900;2023-05-07T01:37:53;35.90;;;28.70;;
47804;SDS011;33568;45.286;9.900;2023-05-07T01:40:20;31.13;;;28.08;;
47804;SDS011;33568;45.286;9.900;2023-05-07T01:42:47;31.73;;;28.45;;
47804;SDS011;33568;45.286;9.900;2023-05-07T01:45:14;31.15;;;27.95;;
47804;SDS011;33568;45.286;9.900;2023-05-07T01:47:40;29.77;;;26.77;;
47804;SDS011;33568;45.286;9.900;2023-05-07T01:50:08;31.75;;;28.45;;
47804;SDS011;33568;45.286;9.900;2023-05-07T01:52:38;30.85;;;28.10;;
47804;SDS011;33568;45.286;9.900;2023-05-07T01:55:06;32.13;;;28.88;;
47804;SDS011;33568;45.286;9.900;2023-05-07T01:57:32;31.92;;;28.67;;
47804;SDS011;33568;45.286;9.900;2023-05-07T01:59:59;31.50;;;28.17;;
47804;SDS011;33568;45.286;9.900;2023-05-07T02:02:25;31.63;;;28.48;;
47804;SDS011;33568;45.286;9.900;2023-05-07T02:04:57;31.90;;;28.73;;
47804;SDS011;33568;45.286;9.900;2023-05-07T02:07:24;32.53;;;29.35;;
47804;SDS011;33568;45.286;9.900;2023-05-07T02:09:50;32.88;;;29.52;;
47804;SDS011;33568;45.286;9.900;2023-05-07T02:12:17;31.92;;;29.02;;
47804;SDS011;33568;45.286;9.900;2023-05-07T02:14:43;31.77;;;28.85;;
47804;SDS011;33568;45.286;9.900;2023-05-07T02:17:11;32.45;;;29.20;;
47804;SDS011;33568;45.286;9.900;2023-05-07T02:19:37;35.40;;;29.13;;
47804;SDS011;33568;45.286;9.900;2023-05-07T02:22:04;32.88;;;29.38;;
47804;SDS011;33568;45.286;9.900;2023-05-07T02:24:31;32.70;;;29.42;;
47804;SDS011;33568;45.286;9.900;2023-05-07T02:26:57;33.38;;;29.88;;
47804;SDS011;33568;45.286;9.900;2023-05-07T02:29:24;34.10;;;30.75;;
47804;SDS011;33568;45.286;9.900;2023-05-07T02:31:52;34.35;;;30.90;;
47804;SDS011;33568;45.286;9.900;2023-05-07T02:34:19;33.40;;;30.27;;
47804;SDS011;33568;45.286;9.900;2023-05-07T02:36:45;32.67;;;29.27;;
47804;SDS011;33568;45.286;9.900;2023-05-07T02:39:14;32.47;;;29.42;;
47804;SDS011;33568;45.286;9.900;2023-05-07T02:41:42;33.80;;;30.40;;
47804;SDS011;33568;45.286;9.900;2023-05-07T02:44:09;34.10;;;30.67;;
47804;SDS011;33568;45.286;9.900;2023-05-07T02:46:36;33.83;;;30.25;;
47804;SDS011;33568;45.286;9.900;2023-05-07T02:49:07;36.17;;;32.03;;
47804;SDS011;33568;45.286;9.900;2023-05-07T02:51:34;36.47;;;32.67;;
47804;SDS011;33568;45.286;9.900;2023-05-07T02:54:03;35.67;;;32.20;;
47804;SDS011;33568;45.286;9.900;2023-05-07T02:56:31;33.47;;;30.35;;
47804;SDS011;33568;45.286;9.900;2023-05-07T02:58:57;36.53;;;32.03;;
47804;SDS011;33568;45.286;9.900;2023-05-07T03:01:28;34.05;;;30.65;;
47804;SDS011;33568;45.286;9.900;2023-05-07T03:04:06;35.20;;;31.55;;
47804;SDS011;33568;45.286;9.900;2023-05-07T03:06:33;33.35;;;30.25;;
47804;SDS011;33568;45.286;9.900;2023-05-07T03:08:59;34.80;;;31.35;;
47804;SDS011;33568;45.286;9.900;2023-05-07T03:11:26;32.67;;;29.38;;
47804;SDS011;33568;45.286;9.900;2023-05-07T03:13:52;32.60;;;27.15;;
47804;SDS011;33568;45.286;9.900;2023-05-07T03:16:20;30.63;;;27.45;;
47804;SDS011;33568;45.286;9.900;2023-05-07T03:18:47;32.70;;;27.67;;
47804;SDS011;33568;45.286;9.900;2023-05-07T03:21:13;28.92;;;26.23;;
47804;SDS011;33568;45.286;9.900;2023-05-07T03:23:40;29.90;;;26.92;;
47804;SDS011;33568;45.286;9.900;2023-05-07T03:26:07;29.48;;;26.67;;
47804;SDS011;33568;45.286;9.900;2023-05-07T03:28:34;27.83;;;24.90;;
47804;SDS011;33568;45.286;9.900;2023-05-07T03:31:04;28.08;;;25.15;;
47804;SDS011;33568;45.286;9.900;2023-05-07T03:33:32;26.45;;;23.95;;
47804;SDS011;33568;45.286;9.900;2023-05-07T03:36:01;25.75;;;23.13;;
47804;SDS011;33568;45.286;9.900;2023-05-07T03:38:28;23.98;;;21.70;;
47804;SDS011;33568;45.286;9.900;2023-05-07T03:40:54;19.90;;;17.90;;
47804;SDS011;33568;45.286;9.900;2023-05-07T03:43:21;16.38;;;14.80;;
47804;SDS011;33568;45.286;9.900;2023-05-07T03:45:55;15.93;;;12.27;;
47804;SDS011;33568;45.286;9.900;2023-05-07T03:48:25;11.52;;;10.43;;
47804;SDS011;33568;45.286;9.900;2023-05-07T03:50:54;12.88;;;11.05;;
47804;SDS011;33568;45.286;9.900;2023-05-07T03:53:21;11.70;;;9.35;;
47804;SDS011;33568;45.286;9.900;2023-05-07T03:55:48;10.70;;;8.93;;
47804;SDS011;33568;45.286;9.900;2023-05-07T03:58:15;10.52;;;9.38;;
47804;SDS011;33568;45.286;9.900;2023-05-07T04:00:41;13.15;;;9.80;;
47804;SDS011;33568;45.286;9.900;2023-05-07T04:03:19;13.38;;;8.20;;
47804;SDS011;33568;45.286;9.900;2023-05-07T04:05:45;7.43;;;5.47;;
47804;SDS011;33568;45.286;9.900;2023-05-07T04:08:12;8.85;;;5.45;;
47804;SDS011;33568;45.286;9.900;2023-05-07T04:10:41;6.43;;;4.40;;
47804;SDS011;33568;45.286;9.900;2023-05-07T04:13:10;5.70;;;3.65;;
47804;SDS011;33568;45.286;9.900;2023-05-07T04:15:37;4.18;;;3.40;;
47804;SDS011;33568;45.286;9.900;2023-05-07T04:18:06;4.40;;;3.30;;
47804;SDS011;33568;45.286;9.900;2023-05-07T04:20:33;9.00;;;3.03;;
47804;SDS011;33568;45.286;9.900;2023-05-07T04:23:03;9.00;;;2.88;;
47804;SDS011;33568;45.286;9.900;2023-05-07T04:25:30;9.48;;;3.00;;
47804;SDS011;33568;45.286;9.900;2023-05-07T04:28:04;5.07;;;3.00;;
47804;SDS011;33568;45.286;9.900;2023-05-07T04:30:32;6.03;;;2.70;;
47804;SDS011;33568;45.286;9.900;2023-05-07T04:32:59;3.17;;;2.50;;
47804;SDS011;33568;45.286;9.900;2023-05-07T04:35:28;5.18;;;2.22;;
47804;SDS011;33568;45.286;9.900;2023-05-07T04:37:54;5.93;;;2.55;;
47804;SDS011;33568;45.286;9.900;2023-05-07T04:40:21;7.40;;;2.70;;
47804;SDS011;33568;45.286;9.900;2023-05-07T04:42:47;4.38;;;2.35;;
47804;SDS011;33568;45.286;9.900;2023-05-07T04:45:14;3.15;;;2.45;;
47804;SDS011;33568;45.286;9.900;2023-05-07T04:47:44;5.93;;;2.58;;
47804;SDS011;33568;45.286;9.900;2023-05-07T04:50:10;3.53;;;2.35;;
47804;SDS011;33568;45.286;9.900;2023-05-07T04:52:38;8.13;;;2.60;;
47804;SDS011;33568;45.286;9.900;2023-05-07T04:55:05;4.60;;;2.30;;
47804;SDS011;33568;45.286;9.900;2023-05-07T04:57:36;3.15;;;2.40;;
47804;SDS011;33568;45.286;9.900;2023-05-07T05:00:05;5.53;;;2.22;;
47804;SDS011;33568;45.286;9.900;2023-05-07T05:02:35;5.40;;;2.00;;
47804;SDS011;33568;45.286;9.900;2023-05-07T05:05:02;12.07;;;2.67;;
47804;SDS011;33568;45.286;9.900;2023-05-07T05:07:29;4.10;;;2.03;;
47804;SDS011;33568;45.286;9.900;2023-05-07T05:09:56;3.88;;;2.47;;
47804;SDS011;33568;45.286;9.900;2023-05-07T05:12:24;4.50;;;2.40;;
47804;SDS011;33568;45.286;9.900;2023-05-07T05:14:51;6.38;;;2.28;;
47804;SDS011;33568;45.286;9.900;2023-05-07T05:17:17;7.65;;;2.30;;
47804;SDS011;33568;45.286;9.900;2023-05-07T05:19:44;2.50;;;1.60;;
47804;SDS011;33568;45.286;9.900;2023-05-07T05:22:11;5.10;;;2.08;;
47804;SDS011;33568;45.286;9.900;2023-05-07T05:24:37;3.13;;;1.98;;
47804;SDS011;33568;45.286;9.900;2023-05-07T05:27:03;4.68;;;2.00;;
47804;SDS011;33568;45.286;9.900;2023-05-07T05:29:31;3.92;;;1.92;;
47804;SDS011;33568;45.286;9.900;2023-05-07T05:31:58;4.55;;;2.20;;
47804;SDS011;33568;45.286;9.900;2023-05-07T05:34:25;5.38;;;2.55;;
47804;SDS011;33568;45.286;9.900;2023-05-07T05:36:54;3.28;;;1.70;;
47804;SDS011;33568;45.286;9.900;2023-05-07T05:39:21;2.60;;;1.80;;
47804;SDS011;33568;45.286;9.900;2023-05-07T05:41:49;3.20;;;1.60;;
47804;SDS011;33568;45.286;9.900;2023-05-07T05:44:16;2.50;;;1.50;;
47804;SDS011;33568;45.286;9.900;2023-05-07T05:46:43;3.25;;;1.80;;
47804;SDS011;33568;45.286;9.900;2023-05-07T05:49:09;2.63;;;1.63;;
47804;SDS011;33568;45.286;9.900;2023-05-07T05:51:37;3.55;;;1.85;;
47804;SDS011;33568;45.286;9.900;2023-05-07T05:54:05;3.70;;;1.60;;
47804;SDS011;33568;45.286;9.900;2023-05-07T05:56:32;2.47;;;1.60;;
47804;SDS011;33568;45.286;9.900;2023-05-07T05:58:59;1.48;;;1.38;;
47804;SDS011;33568;45.286;9.900;2023-05-07T06:01:26;3.60;;;1.30;;
47804;SDS011;33568;45.286;9.900;2023-05-07T06:03:55;3.00;;;1.50;;
47804;SDS011;33568;45.286;9.900;2023-05-07T06:06:22;2.00;;;1.42;;
47804;SDS011;33568;45.286;9.900;2023-05-07T06:08:48;2.88;;;1.42;;
47804;SDS011;33568;45.286;9.900;2023-05-07T06:11:20;6.40;;;1.83;;
47804;SDS011;33568;45.286;9.900;2023-05-07T06:13:47;2.03;;;1.83;;
47804;SDS011;33568;45.286;9.900;2023-05-07T06:16:14;4.40;;;1.80;;
47804;SDS011;33568;45.286;9.900;2023-05-07T06:18:41;2.95;;;1.73;;
47804;SDS011;33568;45.286;9.900;2023-05-07T06:21:09;3.08;;;1.35;;
47804;SDS011;33568;45.286;9.900;2023-05-07T06:23:35;6.85;;;1.80;;
47804;SDS011;33568;45.286;9.900;2023-05-07T06:26:04;3.10;;;2.00;;
47804;SDS011;33568;45.286;9.900;2023-05-07T06:28:36;3.38;;;1.92;;
47804;SDS011;33568;45.286;9.900;2023-05-07T06:31:18;2.47;;;1.88;;
47804;SDS011;33568;45.286;9.900;2023-05-07T06:33:54;2.78;;;2.20;;
47804;SDS011;33568;45.286;9.900;2023-05-07T06:36:22;5.90;;;1.70;;
47804;SDS011;33568;45.286;9.900;2023-05-07T06:38:48;6.57;;;2.00;;
47804;SDS011;33568;45.286;9.900;2023-05-07T06:41:15;3.00;;;1.83;;
47804;SDS011;33568;45.286;9.900;2023-05-07T06:43:43;4.88;;;1.70;;
47804;SDS011;33568;45.286;9.900;2023-05-07T06:46:28;3.22;;;1.90;;
47804;SDS011;33568;45.286;9.900;2023-05-07T06:48:55;6.10;;;2.33;;
47804;SDS011;33568;45.286;9.900;2023-05-07T06:51:22;2.58;;;1.90;;
47804;SDS011;33568;45.286;9.900;2023-05-07T06:53:49;2.03;;;1.63;;
47804;SDS011;33568;45.286;9.900;2023-05-07T06:56:16;7.05;;;1.90;;
47804;SDS011;33568;45.286;9.900;2023-05-07T06:58:42;2.70;;;1.90;;
47804;SDS011;33568;45.286;9.900;2023-05-07T07:01:10;6.95;;;3.05;;
47804;SDS011;33568;45.286;9.900;2023-05-07T07:03:37;3.03;;;2.00;;
47804;SDS011;33568;45.286;9.900;2023-05-07T07:06:04;2.80;;;1.90;;
47804;SDS011;33568;45.286;9.900;2023-05-07T07:08:31;4.18;;;2.08;;
47804;SDS011;33568;45.286;9.900;2023-05-07T07:10:58;3.20;;;1.83;;
47804;SDS011;33568;45.286;9.900;2023-05-07T07:13:24;2.17;;;1.50;;
47804;SDS011;33568;45.286;9.900;2023-05-07T07:15:51;5.07;;;1.92;;
47804;SDS011;33568;45.286;9.900;2023-05-07T07:18:19;2.45;;;2.25;;
47804;SDS011;33568;45.286;9.900;2023-05-07T07:20:47;8.20;;;2.58;;
47804;SDS011;33568;45.286;9.900;2023-05-07T07:23:14;5.88;;;2.13;;
47804;SDS011;33568;45.286;9.900;2023-05-07T07:25:41;8.10;;;2.53;;
47804;SDS011;33568;45.286;9.900;2023-05-07T07:28:08;3.28;;;2.00;;
47804;SDS011;33568;45.286;9.900;2023-05-07T07:30:37;3.80;;;2.40;;
47804;SDS011;33568;45.286;9.900;2023-05-07T07:33:04;5.80;;;2.35;;
47804;SDS011;33568;45.286;9.900;2023-05-07T07:35:35;2.83;;;2.40;;
47804;SDS011;33568;45.286;9.900;2023-05-07T07:38:03;3.72;;;1.90;;
47804;SDS011;33568;45.286;9.900;2023-05-07T07:40:30;8.02;;;2.33;;
47804;SDS011;33568;45.286;9.900;2023-05-07T07:42:57;5.57;;;2.10;;
47804;SDS011;33568;45.286;9.900;2023-05-07T07:45:24;2.33;;;1.90;;
47804;SDS011;33568;45.286;9.900;2023-05-07T07:47:51;3.47;;;2.10;;
47804;SDS011;33568;45.286;9.900;2023-05-07T07:50:18;3.10;;;2.00;;
47804;SDS011;33568;45.286;9.900;2023-05-07T07:52:44;4.75;;;1.83;;
47804;SDS011;33568;45.286;9.900;2023-05-07T07:55:14;6.65;;;1.90;;
47804;SDS011;33568;45.286;9.900;2023-05-07T07:57:47;3.00;;;2.17;;
47804;SDS011;33568;45.286;9.900;2023-05-07T08:00:13;10.27;;;2.40;;
47804;SDS011;33568;45.286;9.900;2023-05-07T08:02:44;8.18;;;2.33;;
47804;SDS011;33568;45.286;9.900;2023-05-07T08:05:16;4.53;;;1.90;;
47804;SDS011;33568;45.286;9.900;2023-05-07T08:07:43;5.40;;;2.00;;
47804;SDS011;33568;45.286;9.900;2023-05-07T08:10:12;9.43;;;2.17;;
47804;SDS011;33568;45.286;9.900;2023-05-07T08:12:39;3.50;;;2.00;;
47804;SDS011;33568;45.286;9.900;2023-05-07T08:15:06;6.22;;;1.85;;
47804;SDS011;33568;45.286;9.900;2023-05-07T08:17:33;3.90;;;1.90;;
47804;SDS011;33568;45.286;9.900;2023-05-07T08:19:59;2.78;;;2.00;;
47804;SDS011;33568;45.286;9.900;2023-05-07T08:22:26;7.65;;;2.40;;
47804;SDS011;33568;45.286;9.900;2023-05-07T08:24:52;3.05;;;1.95;;
47804;SDS011;33568;45.286;9.900;2023-05-07T08:27:19;2.50;;;2.22;;
47804;SDS011;33568;45.286;9.900;2023-05-07T08:29:46;7.55;;;2.10;;
47804;SDS011;33568;45.286;9.900;2023-05-07T08:32:16;2.85;;;2.28;;
47804;SDS011;33568;45.286;9.900;2023-05-07T08:34:43;3.20;;;2.00;;
47804;SDS011;33568;45.286;9.900;2023-05-07T08:37:09;6.72;;;2.13;;
47804;SDS011;33568;45.286;9.900;2023-05-07T08:39:36;7.28;;;2.00;;
47804;SDS011;33568;45.286;9.900;2023-05-07T08:42:06;6.97;;;1.90;;
47804;SDS011;33568;45.286;9.900;2023-05-07T08:44:35;3.75;;;2.13;;
47804;SDS011;33568;45.286;9.900;2023-05-07T08:47:06;3.97;;;2.05;;
47804;SDS011;33568;45.286;9.900;2023-05-07T08:49:33;5.80;;;2.30;;
47804;SDS011;33568;45.286;9.900;2023-05-07T08:52:01;5.70;;;1.95;;
47804;SDS011;33568;45.286;9.900;2023-05-07T08:54:28;5.57;;;1.90;;
47804;SDS011;33568;45.286;9.900;2023-05-07T08:56:57;13.82;;;2.33;;
47804;SDS011;33568;45.286;9.900;2023-05-07T08:59:24;10.48;;;2.50;;
47804;SDS011;33568;45.286;9.900;2023-05-07T09:01:50;6.75;;;2.25;;
47804;SDS011;33568;45.286;9.900;2023-05-07T09:04:17;7.30;;;2.30;;
47804;SDS011;33568;45.286;9.900;2023-05-07T09:06:44;4.03;;;2.50;;
47804;SDS011;33568;45.286;9.900;2023-05-07T09:09:16;3.47;;;2.22;;
47804;SDS011;33568;45.286;9.900;2023-05-07T09:11:46;4.20;;;2.55;;
47804;SDS011;33568;45.286;9.900;2023-05-07T09:14:15;4.97;;;2.15;;
47804;SDS011;33568;45.286;9.900;2023-05-07T09:16:44;4.88;;;2.28;;
47804;SDS011;33568;45.286;9.900;2023-05-07T09:19:12;5.55;;;2.38;;
47804;SDS011;33568;45.286;9.900;2023-05-07T09:21:43;4.93;;;2.15;;
47804;SDS011;33568;45.286;9.900;2023-05-07T09:24:11;3.45;;;2.22;;
47804;SDS011;33568;45.286;9.900;2023-05-07T09:26:41;11.20;;;2.13;;
47804;SDS011;33568;45.286;9.900;2023-05-07T09:29:09;3.47;;;2.00;;
47804;SDS011;33568;45.286;9.900;2023-05-07T09:31:37;4.10;;;2.28;;
47804;SDS011;33568;45.286;9.900;2023-05-07T09:34:05;4.90;;;3.03;;
47804;SDS011;33568;45.286;9.900;2023-05-07T09:36:33;6.63;;;2.45;;
47804;SDS011;33568;45.286;9.900;2023-05-07T09:39:01;3.58;;;2.03;;
47804;SDS011;33568;45.286;9.900;2023-05-07T09:41:32;8.73;;;2.08;;
47804;SDS011;33568;45.286;9.900;2023-05-07T09:44:16;2.72;;;2.03;;
47804;SDS011;33568;45.286;9.900;2023-05-07T09:46:52;4.43;;;1.75;;
47804;SDS011;33568;45.286;9.900;2023-05-07T09:49:25;5.03;;;2.25;;
47804;SDS011;33568;45.286;9.900;2023-05-07T09:52:04;3.38;;;2.17;;
47804;SDS011;33568;45.286;9.900;2023-05-07T09:54:35;3.67;;;2.22;;
47804;SDS011;33568;45.286;9.900;2023-05-07T09:57:05;4.25;;;2.15;;
47804;SDS011;33568;45.286;9.900;2023-05-07T09:59:33;4.28;;;2.00;;
47804;SDS011;33568;45.286;9.900;2023-05-07T10:02:05;2.95;;;1.98;;
47804;SDS011;33568;45.286;9.900;2023-05-07T10:04:43;5.93;;;2.00;;
47804;SDS011;33568;45.286;9.900;2023-05-07T10:07:11;5.68;;;1.63;;
47804;SDS011;33568;45.286;9.900;2023-05-07T10:09:39;3.47;;;2.28;;
47804;SDS011;33568;45.286;9.900;2023-05-07T10:12:13;11.25;;;2.13;;
47804;SDS011;33568;45.286;9.900;2023-05-07T10:14:40;3.72;;;2.20;;
47804;SDS011;33568;45.286;9.900;2023-05-07T10:17:09;5.72;;;2.40;;
47804;SDS011;33568;45.286;9.900;2023-05-07T10:19:38;4.78;;;2.22;;
47804;SDS011;33568;45.286;9.900;2023-05-07T10:22:06;3.67;;;2.28;;
47804;SDS011;33568;45.286;9.900;2023-05-07T10:24:39;4.20;;;1.88;;
47804;SDS011;33568;45.286;9.900;2023-05-07T10:27:12;10.88;;;2.15;;
47804;SDS011;33568;45.286;9.900;2023-05-07T10:35:06;5.03;;;2.72;;
47804;SDS011;33568;45.286;9.900;2023-05-07T10:37:38;2.67;;;1.83;;
47804;SDS011;33568;45.286;9.900;2023-05-07T10:40:06;3.10;;;1.65;;
47804;SDS011;33568;45.286;9.900;2023-05-07T10:42:34;3.03;;;2.03;;
47804;SDS011;33568;45.286;9.900;2023-05-07T10:45:13;2.65;;;1.83;;
47804;SDS011;33568;45.286;9.900;2023-05-07T10:50:44;3.00;;;2.22;;
47804;SDS011;33568;45.286;9.900;2023-05-07T11:01:53;3.60;;;1.50;;
47804;SDS011;33568;45.286;9.900;2023-05-07T11:04:44;1.75;;;1.65;;
47804;SDS011;33568;45.286;9.900;2023-05-07T11:07:24;5.07;;;1.52;;
47804;SDS011;33568;45.286;9.900;2023-05-07T11:09:56;3.40;;;1.45;;
47804;SDS011;33568;45.286;9.900;2023-05-07T11:13:01;5.82;;;1.50;;
47804;SDS011;33568;45.286;9.900;2023-05-07T11:15:37;2.60;;;1.60;;
47804;SDS011;33568;45.286;9.900;2023-05-07T11:18:26;6.63;;;1.52;;
47804;SDS011;33568;45.286;9.900;2023-05-07T11:21:40;6.97;;;1.30;;
47804;SDS011;33568;45.286;9.900;2023-05-07T11:24:16;5.93;;;1.88;;
47804;SDS011;33568;45.286;9.900;2023-05-07T11:29:30;1.88;;;1.63;;
47804;SDS011;33568;45.286;9.900;2023-05-07T11:32:03;2.40;;;1.60;;
47804;SDS011;33568;45.286;9.900;2023-05-07T11:34:38;2.35;;;1.60;;
47804;SDS011;33568;45.286;9.900;2023-05-07T11:37:04;1.60;;;1.50;;
47804;SDS011;33568;45.286;9.900;2023-05-07T11:39:41;3.65;;;1.50;;
47804;SDS011;33568;45.286;9.900;2023-05-07T11:42:24;2.63;;;1.45;;
47804;SDS011;33568;45.286;9.900;2023-05-07T11:44:54;2.22;;;1.70;;
47804;SDS011;33568;45.286;9.900;2023-05-07T11:47:21;2.47;;;1.50;;
47804;SDS011;33568;45.286;9.900;2023-05-07T11:49:51;2.75;;;1.75;;
47804;SDS011;33568;45.286;9.900;2023-05-07T11:52:19;3.55;;;1.52;;
47804;SDS011;33568;45.286;9.900;2023-05-07T11:54:51;2.63;;;1.65;;
47804;SDS011;33568;45.286;9.900;2023-05-07T11:57:22;2.17;;;1.55;;
47804;SDS011;33568;45.286;9.900;2023-05-07T11:59:56;4.70;;;1.60;;
47804;SDS011;33568;45.286;9.900;2023-05-07T12:02:23;2.45;;;1.40;;
47804;SDS011;33568;45.286;9.900;2023-05-07T12:04:54;2.47;;;1.40;;
47804;SDS011;33568;45.286;9.900;2023-05-07T12:07:21;2.03;;;1.20;;
47804;SDS011;33568;45.286;9.900;2023-05-07T12:09:49;1.42;;;1.33;;
47804;SDS011;33568;45.286;9.900;2023-05-07T12:12:16;2.67;;;1.73;;
47804;SDS011;33568;45.286;9.900;2023-05-07T12:14:43;7.07;;;1.42;;
47804;SDS011;33568;45.286;9.900;2023-05-07T12:17:11;2.45;;;1.52;;
47804;SDS011;33568;45.286;9.900;2023-05-07T12:19:39;3.80;;;1.60;;
47804;SDS011;33568;45.286;9.900;2023-05-07T12:22:07;2.20;;;1.70;;
47804;SDS011;33568;45.286;9.900;2023-05-07T12:24:44;2.70;;;1.85;;
47804;SDS011;33568;45.286;9.900;2023-05-07T12:27:12;8.23;;;1.85;;
47804;SDS011;33568;45.286;9.900;2023-05-07T12:29:49;1.88;;;1.70;;
47804;SDS011;33568;45.286;9.900;2023-05-07T12:32:17;3.72;;;1.45;;
47804;SDS011;33568;45.286;9.900;2023-05-07T12:34:46;5.05;;;2.10;;
47804;SDS011;33568;45.286;9.900;2023-05-07T12:37:15;3.22;;;2.05;;
47804;SDS011;33568;45.286;9.900;2023-05-07T12:39:49;5.38;;;1.70;;
47804;SDS011;33568;45.286;9.900;2023-05-07T12:42:35;2.60;;;2.10;;
47804;SDS011;33568;45.286;9.900;2023-05-07T12:45:12;4.13;;;1.98;;
47804;SDS011;33568;45.286;9.900;2023-05-07T12:47:46;3.42;;;2.65;;
47804;SDS011;33568;45.286;9.900;2023-05-07T12:50:14;4.03;;;2.50;;
47804;SDS011;33568;45.286;9.900;2023-05-07T12:52:42;3.83;;;2.17;;
47804;SDS011;33568;45.286;9.900;2023-05-07T12:55:11;6.93;;;3.35;;
47804;SDS011;33568;45.286;9.900;2023-05-07T12:57:41;7.35;;;3.33;;
47804;SDS011;33568;45.286;9.900;2023-05-07T13:00:08;4.07;;;3.30;;
47804;SDS011;33568;45.286;9.900;2023-05-07T13:02:40;3.92;;;3.40;;
47804;SDS011;33568;45.286;9.900;2023-05-07T13:05:07;4.45;;;3.55;;
47804;SDS011;33568;45.286;9.900;2023-05-07T13:07:34;3.20;;;2.88;;
47804;SDS011;33568;45.286;9.900;2023-05-07T13:10:01;4.35;;;3.40;;
47804;SDS011;33568;45.286;9.900;2023-05-07T13:12:27;4.13;;;3.45;;
47804;SDS011;33568;45.286;9.900;2023-05-07T13:14:54;5.65;;;2.92;;
47804;SDS011;33568;45.286;9.900;2023-05-07T13:17:20;7.20;;;3.08;;
47804;SDS011;33568;45.286;9.900;2023-05-07T13:19:47;6.35;;;3.38;;
47804;SDS011;33568;45.286;9.900;2023-05-07T13:22:13;5.07;;;3.65;;
47804;SDS011;33568;45.286;9.900;2023-05-07T13:24:40;4.57;;;3.15;;
47804;SDS011;33568;45.286;9.900;2023-05-07T13:27:08;5.40;;;2.85;;
47804;SDS011;33568;45.286;9.900;2023-05-07T13:29:34;4.22;;;2.83;;
47804;SDS011;33568;45.286;9.900;2023-05-07T13:32:01;7.93;;;2.40;;
47804;SDS011;33568;45.286;9.900;2023-05-07T13:34:27;3.42;;;2.95;;
47804;SDS011;33568;45.286;9.900;2023-05-07T13:36:54;4.43;;;3.42;;
47804;SDS011;33568;45.286;9.900;2023-05-07T13:39:21;4.35;;;2.90;;
47804;SDS011;33568;45.286;9.900;2023-05-07T13:41:47;5.45;;;2.70;;
47804;SDS011;33568;45.286;9.900;2023-05-07T13:44:14;3.17;;;2.55;;
47804;SDS011;33568;45.286;9.900;2023-05-07T13:46:40;5.85;;;2.30;;
47804;SDS011;33568;45.286;9.900;2023-05-07T13:49:06;5.35;;;2.60;;
47804;SDS011;33568;45.286;9.900;2023-05-07T13:51:33;4.57;;;2.83;;
47804;SDS011;33568;45.286;9.900;2023-05-07T13:53:59;3.42;;;2.70;;
47804;SDS011;33568;45.286;9.900;2023-05-07T13:56:26;5.15;;;2.60;;
47804;SDS011;33568;45.286;9.900;2023-05-07T13:58:54;4.03;;;2.60;;
47804;SDS011;33568;45.286;9.900;2023-05-07T14:01:20;5.95;;;2.80;;
47804;SDS011;33568;45.286;9.900;2023-05-07T14:03:47;2.97;;;2.30;;
47804;SDS011;33568;45.286;9.900;2023-05-07T14:06:13;4.60;;;2.65;;
47804;SDS011;33568;45.286;9.900;2023-05-07T14:08:40;2.95;;;2.63;;
47804;SDS011;33568;45.286;9.900;2023-05-07T14:11:07;5.30;;;2.80;;
47804;SDS011;33568;45.286;9.900;2023-05-07T14:13:33;3.35;;;2.60;;
47804;SDS011;33568;45.286;9.900;2023-05-07T14:16:00;4.30;;;2.70;;
47804;SDS011;33568;45.286;9.900;2023-05-07T14:18:26;4.25;;;2.38;;
47804;SDS011;33568;45.286;9.900;2023-05-07T14:20:54;4.40;;;2.25;;
47804;SDS011;33568;45.286;9.900;2023-05-07T14:23:21;2.47;;;2.08;;
47804;SDS011;33568;45.286;9.900;2023-05-07T14:25:52;3.78;;;2.30;;
47804;SDS011;33568;45.286;9.900;2023-05-07T14:28:19;3.25;;;2.03;;
47804;SDS011;33568;45.286;9.900;2023-05-07T14:30:46;2.55;;;2.30;;
47804;SDS011;33568;45.286;9.900;2023-05-07T14:33:12;3.33;;;2.20;;
47804;SDS011;33568;45.286;9.900;2023-05-07T14:35:39;7.78;;;2.40;;
47804;SDS011;33568;45.286;9.900;2023-05-07T14:38:05;3.92;;;2.13;;
47804;SDS011;33568;45.286;9.900;2023-05-07T14:40:32;4.60;;;2.17;;
47804;SDS011;33568;45.286;9.900;2023-05-07T14:42:58;3.83;;;2.53;;
47804;SDS011;33568;45.286;9.900;2023-05-07T14:45:25;9.43;;;2.28;;
47804;SDS011;33568;45.286;9.900;2023-05-07T14:47:52;3.90;;;2.08;;
47804;SDS011;33568;45.286;9.900;2023-05-07T14:50:18;7.63;;;2.30;;
47804;SDS011;33568;45.286;9.900;2023-05-07T14:52:45;5.22;;;2.00;;
47804;SDS011;33568;45.286;9.900;2023-05-07T14:55:11;4.45;;;2.13;;
47804;SDS011;33568;45.286;9.900;2023-05-07T14:57:38;2.55;;;1.80;;
47804;SDS011;33568;45.286;9.900;2023-05-07T15:00:05;4.10;;;2.08;;
47804;SDS011;33568;45.286;9.900;2023-05-07T15:02:32;5.03;;;1.90;;
47804;SDS011;33568;45.286;9.900;2023-05-07T15:04:59;2.95;;;2.00;;
47804;SDS011;33568;45.286;9.900;2023-05-07T15:07:26;6.55;;;2.10;;
47804;SDS011;33568;45.286;9.900;2023-05-07T15:09:52;3.13;;;2.25;;